首页
METAR-TAF:

METAR-TAF

机场 :

赫尔辛基-万塔机场

赫尔辛基, 芬兰

纬度: 60-19N, 经度: 024-58E, 海拔: 51米

当前天气观测

该预报发布于24分钟前的16:50 UTC
风速2节,风向
温度 -10°C
湿度 100%
气压 994 hPa
能见度10公里或以上
1500米以下无云,无积雨云

METAR: EFHK 161650Z 19002KT CAVOK M10/M10 Q0994 NOSIG

时间: 19:14 (17:14 UTC)

预报

该预报发布于2小时和38分钟前的14:36 UTC
预报有效从16日的 15点(UTC)到 17日的 15点(UTC)
风速2节,风向多变
能见度10公里或以上
1500米以下无云,无积雨云
成为
从 16日的 20点(UTC)到 16日的 22点(UTC)
风速12节,风向
能見度: 2000
多云层高于1000英尺
小雪
短暂存在
从 16日的 22点(UTC)到 17日的 06点(UTC)
能見度: 0900
层高于700英尺
几率 30%
从 17日的 08点(UTC)到 17日的 11点(UTC)
能見度: 3000
多云层高于400英尺
(小) 冻, 毛毛雨
成为
从 17日的 08点(UTC)到 17日的 10点(UTC)
风速11节,风向北转东北

TAF: EFHK 161436Z 1615/1715 VRB02KT CAVOK BECMG 1620/1622 10012KT 2000 -SN BKN010 TEMPO 1622/1706 0900 SN VV007 PROB30 1708/1711 3000 -FZDZ BKN004 BECMG 1708/1710 02011KT

超过4000个机场的气象观测和天气预报(METAR&TAF报告)。

可查询的气象台以黄色和红色小点在地图上表示。

将鼠标移到小点上方,可查看气象台名称。

然后点击查看天气观测和预报。

如需切换地图:点击带黑十字的绿色按钮放大地图;点击带横线的绿色按钮缩小地图;或者点击绿色箭头查看邻近地区的地图。


METAR-TAF: